createdAt,value
2019-02-04T00:00:50.496Z,99.99
2019-02-04T00:01:50.487Z,99.99
2019-02-04T00:02:50.477Z,99.99
2019-02-04T00:03:50.470Z,99.99
2019-02-04T00:04:50.460Z,99.99
2019-02-04T00:05:50.467Z,99.99
2019-02-04T00:06:50.439Z,99.99
2019-02-04T00:07:50.432Z,99.99
2019-02-04T00:08:50.430Z,99.99
2019-02-04T00:09:50.411Z,99.99
2019-02-04T00:10:50.401Z,99.99
2019-02-04T00:11:50.399Z,99.99
2019-02-04T00:12:50.387Z,99.99
2019-02-04T00:13:50.381Z,99.99
2019-02-04T00:14:50.364Z,99.99
2019-02-04T00:15:50.367Z,99.99
2019-02-04T00:16:50.380Z,99.99
2019-02-04T00:17:50.333Z,99.99
2019-02-04T00:18:50.337Z,99.99
2019-02-04T00:19:50.316Z,99.99
2019-02-04T00:20:50.305Z,99.99
2019-02-04T00:21:50.295Z,99.99
2019-02-04T00:22:50.352Z,99.99
2019-02-04T00:23:50.276Z,99.99
2019-02-04T00:24:50.276Z,99.99
2019-02-04T00:25:50.258Z,99.99
2019-02-04T00:26:51.560Z,99.99
2019-02-04T00:27:50.237Z,99.99
2019-02-04T00:28:50.228Z,99.99
2019-02-04T00:29:50.232Z,99.99
2019-02-04T00:30:50.209Z,99.99
2019-02-04T00:31:50.206Z,99.99
2019-02-04T00:32:50.204Z,99.99
2019-02-04T00:33:50.181Z,99.99
2019-02-04T00:34:50.169Z,99.99
2019-02-04T00:35:50.164Z,99.99
2019-02-04T00:36:50.154Z,99.99
2019-02-04T00:37:50.146Z,99.99
2019-02-04T00:38:50.143Z,99.99
2019-02-04T00:39:50.134Z,99.99
2019-02-04T00:40:50.113Z,99.99
2019-02-04T00:41:50.105Z,99.99
2019-02-04T00:42:50.095Z,99.99
2019-02-04T00:43:50.085Z,99.99
2019-02-04T00:44:50.075Z,99.99
2019-02-04T00:45:50.066Z,99.99
2019-02-04T00:46:52.133Z,99.99
2019-02-04T00:47:50.046Z,99.99
2019-02-04T00:48:50.036Z,99.99
2019-02-04T00:49:50.026Z,99.99
2019-02-04T00:50:50.019Z,99.99
2019-02-04T00:51:50.006Z,99.99
2019-02-04T00:52:49.996Z,99.99
2019-02-04T00:53:49.987Z,99.99
2019-02-04T00:54:49.993Z,99.99
2019-02-04T00:55:49.967Z,99.99
2019-02-04T00:56:49.952Z,99.99
2019-02-04T00:57:49.947Z,99.99
2019-02-04T00:58:49.946Z,99.99
2019-02-04T00:59:49.925Z,99.99
2019-02-04T01:00:49.913Z,99.99
2019-02-04T01:01:49.905Z,99.99
2019-02-04T01:02:49.896Z,99.99
2019-02-04T01:03:49.903Z,99.99
2019-02-04T01:04:49.875Z,99.99
2019-02-04T01:05:49.862Z,99.99
2019-02-04T01:06:49.855Z,99.99
2019-02-04T01:07:49.858Z,99.99
2019-02-04T01:08:49.839Z,99.99
2019-02-04T01:09:49.834Z,99.99
2019-02-04T01:10:49.816Z,99.99
2019-02-04T01:11:49.802Z,99.99
2019-02-04T01:12:49.793Z,99.99
2019-02-04T01:13:49.783Z,99.99
2019-02-04T01:14:49.796Z,99.99
2019-02-04T01:15:49.761Z,99.99
2019-02-04T01:16:49.757Z,99.99
2019-02-04T01:17:49.740Z,99.99
2019-02-04T01:18:49.729Z,99.99
2019-02-04T01:19:49.762Z,99.99
2019-02-04T01:20:49.708Z,99.99
2019-02-04T01:21:49.713Z,99.99
2019-02-04T01:22:49.687Z,99.99
2019-02-04T01:23:49.678Z,99.99
2019-02-04T01:24:49.678Z,99.99
2019-02-04T01:25:49.675Z,99.99
2019-02-04T01:26:49.645Z,99.99
2019-02-04T01:27:49.638Z,99.99
2019-02-04T01:28:49.623Z,99.99
2019-02-04T01:29:49.615Z,99.99
2019-02-04T01:30:49.602Z,99.99
2019-02-04T01:31:49.591Z,99.99
2019-02-04T01:32:49.581Z,99.99
2019-02-04T01:33:49.571Z,99.99
2019-02-04T01:34:49.566Z,99.99
2019-02-04T01:35:49.548Z,99.99
2019-02-04T01:36:49.536Z,99.99
2019-02-04T01:37:49.530Z,99.99
2019-02-04T01:38:49.514Z,99.99
2019-02-04T01:39:49.503Z,99.99
2019-02-04T01:40:49.498Z,99.99
2019-02-04T01:41:49.486Z,99.99
2019-02-04T01:42:49.531Z,99.99
2019-02-04T01:43:49.460Z,99.99
2019-02-04T01:44:49.451Z,99.99
2019-02-04T01:45:49.440Z,99.99
2019-02-04T01:46:51.526Z,99.99
2019-02-04T01:47:49.415Z,99.99
2019-02-04T01:48:49.410Z,99.99
2019-02-04T01:49:49.395Z,99.99
2019-02-04T01:50:49.408Z,99.99
2019-02-04T01:51:49.374Z,99.99
2019-02-04T01:52:49.380Z,99.99
2019-02-04T01:53:49.354Z,99.99
2019-02-04T01:54:49.339Z,99.99
2019-02-04T01:55:49.342Z,99.99
2019-02-04T01:56:49.321Z,99.99
2019-02-04T01:57:49.311Z,99.99
2019-02-04T01:58:49.296Z,99.99
2019-02-04T01:59:49.285Z,99.99
2019-02-04T02:00:49.274Z,99.99
2019-02-04T02:01:49.271Z,99.99
2019-02-04T02:02:49.252Z,99.99
2019-02-04T02:03:49.244Z,99.99
2019-02-04T02:04:49.229Z,99.99
2019-02-04T02:05:49.222Z,99.99
2019-02-04T02:06:49.208Z,99.99
2019-02-04T02:07:49.199Z,99.99
2019-02-04T02:08:49.185Z,99.99
2019-02-04T02:09:49.225Z,99.99
2019-02-04T02:10:49.174Z,99.99
2019-02-04T02:11:49.151Z,99.99
2019-02-04T02:12:49.143Z,99.99
2019-02-04T02:13:49.129Z,99.99
2019-02-04T02:14:49.118Z,99.99
2019-02-04T02:15:49.111Z,99.99
2019-02-04T02:16:49.094Z,99.99
2019-02-04T02:17:49.084Z,99.99
2019-02-04T02:18:49.078Z,99.99
2019-02-04T02:19:49.061Z,99.99
2019-02-04T02:20:49.051Z,99.99
2019-02-04T02:21:49.040Z,99.99
2019-02-04T02:22:49.032Z,99.99
2019-02-04T02:23:49.016Z,99.99
2019-02-04T02:24:49.002Z,99.99
2019-02-04T02:25:48.994Z,99.99
2019-02-04T02:26:48.981Z,99.99
2019-02-04T02:27:48.972Z,99.99
2019-02-04T02:28:48.961Z,99.99
2019-02-04T02:29:48.952Z,99.99
2019-02-04T02:30:48.957Z,99.99
2019-02-04T02:31:48.925Z,99.99
2019-02-04T02:32:48.918Z,99.99
2019-02-04T02:33:48.919Z,99.99
2019-02-04T02:34:48.890Z,99.99
2019-02-04T02:35:48.878Z,99.99
2019-02-04T02:36:48.875Z,99.99
2019-02-04T02:37:48.858Z,99.99
2019-02-04T02:38:48.845Z,99.99
2019-02-04T02:39:48.850Z,99.99
2019-02-04T02:40:48.835Z,99.99
2019-02-04T02:41:48.811Z,99.99
2019-02-04T02:42:48.799Z,99.99
2019-02-04T02:43:48.794Z,99.99
2019-02-04T02:44:48.783Z,99.99
2019-02-04T02:45:48.770Z,99.99
2019-02-04T02:46:48.755Z,99.99
2019-02-04T02:47:48.741Z,99.99
2019-02-04T02:48:48.732Z,99.99
2019-02-04T02:49:48.728Z,99.99
2019-02-04T02:50:48.709Z,99.99
2019-02-04T02:51:48.709Z,99.99
2019-02-04T02:52:48.699Z,99.99
2019-02-04T02:53:48.673Z,99.99
2019-02-04T02:54:48.669Z,99.99
2019-02-04T02:55:48.666Z,99.99
2019-02-04T02:56:48.639Z,99.99
2019-02-04T02:57:48.632Z,99.99
2019-02-04T02:58:48.616Z,99.99
2019-02-04T02:59:48.604Z,99.99
2019-02-04T03:00:48.593Z,99.99
2019-02-04T03:01:48.584Z,99.99
2019-02-04T03:02:48.567Z,99.99
2019-02-04T03:03:48.559Z,99.99
2019-02-04T03:04:48.546Z,99.99
2019-02-04T03:05:48.537Z,99.99
2019-02-04T03:06:48.525Z,99.99
2019-02-04T03:07:48.515Z,99.99
2019-02-04T03:08:48.504Z,99.99
2019-02-04T03:09:48.488Z,99.99
2019-02-04T03:10:48.477Z,99.99
2019-02-04T03:11:48.466Z,99.99
2019-02-04T03:12:48.459Z,99.99
2019-02-04T03:13:48.443Z,99.99
2019-02-04T03:14:48.430Z,99.99
2019-02-04T03:15:48.419Z,99.99
2019-02-04T03:16:48.406Z,99.99
2019-02-04T03:17:51.898Z,99.99
2019-02-04T03:18:48.387Z,99.99
2019-02-04T03:19:48.377Z,99.99
2019-02-04T03:20:48.366Z,99.99
2019-02-04T03:21:48.353Z,99.99
2019-02-04T03:22:48.338Z,99.99
2019-02-04T03:23:48.355Z,99.99
2019-02-04T03:24:48.318Z,99.99
2019-02-04T03:25:48.305Z,99.99
2019-02-04T03:26:48.299Z,99.99
2019-02-04T03:27:48.281Z,99.99
2019-02-04T03:28:48.272Z,99.99
2019-02-04T03:29:48.259Z,99.99
2019-02-04T03:30:48.253Z,99.99
2019-02-04T03:31:48.241Z,99.99
2019-02-04T03:32:48.250Z,99.99
2019-02-04T03:33:48.210Z,99.99
2019-02-04T03:34:48.213Z,99.99
2019-02-04T03:35:48.194Z,99.99
2019-02-04T03:36:48.175Z,99.99
2019-02-04T03:37:48.166Z,99.99
2019-02-04T03:38:48.157Z,99.99
2019-02-04T03:39:48.139Z,99.99
2019-02-04T03:40:48.130Z,99.99
2019-02-04T03:41:48.117Z,99.99
2019-02-04T03:42:48.193Z,99.99
2019-02-04T03:43:48.095Z,99.99
2019-02-04T03:44:48.093Z,99.99
2019-02-04T03:45:48.074Z,99.99
2019-02-04T03:46:48.056Z,99.99
2019-02-04T03:47:48.050Z,99.99
2019-02-04T03:48:48.036Z,99.99
2019-02-04T03:49:48.026Z,99.99
2019-02-04T03:50:48.013Z,99.99
2019-02-04T03:51:48.002Z,99.99
2019-02-04T03:52:47.992Z,99.99
2019-02-04T03:53:47.975Z,99.99
2019-02-04T03:54:47.966Z,99.99
2019-02-04T03:55:47.954Z,99.99
2019-02-04T03:56:47.954Z,99.99
2019-02-04T03:57:47.932Z,99.99
2019-02-04T03:58:47.919Z,99.99
2019-02-04T03:59:47.908Z,99.99
2019-02-04T04:00:47.895Z,99.99
2019-02-04T04:01:47.955Z,99.99
2019-02-04T04:02:47.871Z,99.99
2019-02-04T04:03:47.861Z,99.99
2019-02-04T04:04:47.852Z,99.99
2019-02-04T04:05:47.838Z,99.99
2019-02-04T04:06:47.824Z,99.99
2019-02-04T04:07:47.814Z,99.99
2019-02-04T04:08:47.799Z,99.99
2019-02-04T04:09:47.789Z,99.99
2019-02-04T04:10:47.778Z,99.99
2019-02-04T04:11:47.768Z,99.99
2019-02-04T04:12:47.753Z,99.99
2019-02-04T04:13:47.742Z,99.99
2019-02-04T04:14:47.758Z,99.99
2019-02-04T04:15:47.720Z,99.99
2019-02-04T04:16:47.705Z,99.99
2019-02-04T04:17:47.701Z,99.99
2019-02-04T04:18:47.683Z,99.99
2019-02-04T04:19:47.682Z,99.99
2019-02-04T04:20:47.660Z,99.99
2019-02-04T04:21:47.649Z,99.99
2019-02-04T04:22:47.636Z,99.99
2019-02-04T04:23:47.625Z,99.99
2019-02-04T04:24:47.613Z,99.99
2019-02-04T04:25:47.608Z,99.99
2019-02-04T04:26:47.585Z,99.99
2019-02-04T04:27:47.589Z,99.99
2019-02-04T04:28:47.567Z,99.99
2019-02-04T04:29:47.554Z,99.99
2019-02-04T04:30:47.541Z,99.99
2019-02-04T04:31:47.528Z,99.99
2019-02-04T04:32:47.519Z,99.99
2019-02-04T04:33:47.505Z,99.99
2019-02-04T04:34:47.496Z,99.99
2019-02-04T04:35:47.479Z,99.99
2019-02-04T04:36:47.467Z,99.99
2019-02-04T04:37:47.458Z,99.99
2019-02-04T04:38:47.442Z,99.99
2019-02-04T04:39:47.431Z,99.99
2019-02-04T04:40:47.423Z,99.99
2019-02-04T04:41:47.409Z,99.99
2019-02-04T04:42:47.418Z,99.99
2019-02-04T04:43:47.386Z,99.99
2019-02-04T04:44:47.369Z,99.99
2019-02-04T04:45:47.360Z,99.99
2019-02-04T04:46:47.348Z,99.99
2019-02-04T04:47:47.340Z,99.99
2019-02-04T04:48:47.324Z,99.99
2019-02-04T04:49:47.312Z,99.99
2019-02-04T04:50:47.298Z,99.99
2019-02-04T04:51:47.305Z,99.99
2019-02-04T04:52:47.274Z,99.99
2019-02-04T04:53:47.277Z,99.99
2019-02-04T04:54:47.252Z,99.99
2019-02-04T04:55:47.239Z,99.99
2019-02-04T04:56:47.227Z,99.99
2019-02-04T04:57:47.225Z,99.99
2019-02-04T04:58:47.203Z,99.99
2019-02-04T04:59:47.194Z,99.99
2019-02-04T05:00:47.179Z,99.99
2019-02-04T05:01:47.168Z,99.99
2019-02-04T05:02:47.159Z,99.99
2019-02-04T05:03:47.155Z,99.99
2019-02-04T05:04:47.134Z,99.99
2019-02-04T05:05:47.121Z,99.99
2019-02-04T05:06:47.110Z,99.99
2019-02-04T05:07:47.094Z,99.99
2019-02-04T05:08:47.088Z,99.99
2019-02-04T05:09:47.075Z,99.99
2019-02-04T05:10:47.061Z,99.99
2019-02-04T05:11:47.056Z,99.99
2019-02-04T05:12:47.037Z,99.99
2019-02-04T05:13:47.024Z,99.99
2019-02-04T05:14:47.012Z,99.99
2019-02-04T05:15:47.002Z,99.99
2019-02-04T05:16:46.988Z,99.99
2019-02-04T05:17:46.979Z,99.99
2019-02-04T05:18:46.961Z,99.99
2019-02-04T05:19:46.953Z,99.99
2019-02-04T05:20:46.941Z,99.99
2019-02-04T05:21:46.929Z,99.99
2019-02-04T05:22:46.918Z,99.99
2019-02-04T05:23:46.909Z,99.99
2019-02-04T05:24:46.903Z,99.99
2019-02-04T05:25:55.197Z,99.99
2019-02-04T05:27:39.751Z,99.99
2019-02-04T05:28:47.037Z,99.99
2019-02-04T05:30:32.628Z,99.99
2019-02-04T05:31:32.587Z,99.99
2019-02-04T05:33:25.405Z,99.99
2019-02-04T05:34:25.596Z,99.99
2019-02-04T05:36:18.790Z,99.99
2019-02-04T05:37:18.705Z,99.99
2019-02-04T05:39:12.080Z,99.99
2019-02-04T05:43:10.502Z,99.99
2019-02-04T05:44:10.492Z,99.99
2019-02-04T05:46:03.540Z,99.99
2019-02-04T05:47:03.312Z,99.99
2019-02-04T05:48:03.301Z,99.99
2019-02-04T05:49:03.308Z,99.99
2019-02-04T05:50:10.645Z,99.99
2019-02-04T05:51:56.178Z,99.99
2019-02-04T05:52:56.104Z,99.99
2019-02-04T05:53:57.683Z,99.99
2019-02-04T05:55:03.828Z,99.99
2019-02-04T05:56:49.598Z,99.99
2019-02-04T05:57:49.547Z,99.99
2019-02-04T05:59:42.292Z,99.99
2019-02-04T06:00:42.240Z,99.99
2019-02-04T06:02:35.611Z,99.99
2019-02-04T06:03:44.535Z,99.99
2019-02-04T06:04:44.481Z,99.99
2019-02-04T06:06:37.985Z,99.99
2019-02-04T06:07:37.819Z,99.99
2019-02-04T06:09:30.693Z,99.99
2019-02-04T06:10:30.659Z,99.99
2019-02-04T06:12:23.493Z,99.99
2019-02-04T06:13:23.480Z,99.99
2019-02-04T06:15:16.863Z,99.99
2019-02-04T06:16:16.830Z,99.99
2019-02-04T06:18:09.691Z,99.99
2019-02-04T06:19:09.625Z,99.99
2019-02-04T06:21:03.011Z,99.99
2019-02-04T06:22:02.918Z,99.99
2019-02-04T06:23:55.816Z,99.99
2019-02-04T06:24:55.779Z,99.99
2019-02-04T06:26:49.084Z,99.99
2019-02-04T06:27:49.058Z,99.99
2019-02-04T06:29:41.939Z,99.99
2019-02-04T06:30:41.880Z,99.99
2019-02-04T06:32:34.829Z,99.99
2019-02-04T06:33:34.726Z,99.99
2019-02-04T06:34:34.697Z,99.99
2019-02-04T06:35:34.702Z,99.99
2019-02-04T06:36:34.681Z,99.99
2019-02-04T06:37:34.704Z,99.99
2019-02-04T06:38:34.650Z,99.99
2019-02-04T06:39:34.638Z,99.99
2019-02-04T06:40:34.627Z,99.99
2019-02-04T06:41:34.613Z,99.99
2019-02-04T06:42:34.605Z,99.99
2019-02-04T06:43:34.598Z,99.99
2019-02-04T06:44:34.601Z,99.99
2019-02-04T06:45:34.575Z,99.99
2019-02-04T06:46:34.563Z,99.99
2019-02-04T06:47:34.552Z,99.99
2019-02-04T06:48:34.529Z,99.99
2019-02-04T06:49:34.518Z,99.99
2019-02-04T06:50:34.506Z,99.99
2019-02-04T06:51:34.494Z,99.99
2019-02-04T06:52:34.485Z,99.99
2019-02-04T06:53:34.477Z,99.99
2019-02-04T06:54:34.471Z,99.99
2019-02-04T06:55:34.444Z,99.99
2019-02-04T06:56:36.051Z,99.99
2019-02-04T06:57:34.528Z,99.99
2019-02-04T06:58:34.412Z,99.99
2019-02-04T06:59:34.401Z,99.99
2019-02-04T07:00:34.389Z,99.99
2019-02-04T07:01:34.375Z,99.99
2019-02-04T07:02:34.389Z,99.99
2019-02-04T07:03:34.380Z,99.99
2019-02-04T07:04:34.347Z,99.99
2019-02-04T07:05:43.526Z,99.99
2019-02-04T07:06:34.316Z,99.99
2019-02-04T07:07:34.347Z,99.99
2019-02-04T07:08:34.312Z,99.99
2019-02-04T07:09:34.284Z,99.99
2019-02-04T07:10:34.272Z,99.99
2019-02-04T07:11:34.261Z,99.99
2019-02-04T07:12:34.246Z,99.99
2019-02-04T07:13:34.244Z,99.99
2019-02-04T07:14:34.223Z,99.99
2019-02-04T07:15:34.217Z,99.99
2019-02-04T07:16:34.206Z,99.99
2019-02-04T07:17:34.195Z,99.99
2019-02-04T07:18:34.191Z,99.99
2019-02-04T07:19:34.183Z,99.99
2019-02-04T07:20:34.161Z,99.99
2019-02-04T07:21:34.174Z,99.99
2019-02-04T07:22:34.400Z,99.99
2019-02-04T07:23:34.121Z,99.99
2019-02-04T07:24:42.376Z,99.99
2019-02-04T07:25:34.102Z,99.99
2019-02-04T07:26:34.087Z,99.99
2019-02-04T07:27:34.076Z,99.99
2019-02-04T07:28:34.085Z,99.99
2019-02-04T07:29:34.055Z,99.99
2019-02-04T07:30:34.040Z,99.99
2019-02-04T07:31:34.032Z,99.99
2019-02-04T07:32:34.018Z,99.99
2019-02-04T07:33:34.015Z,99.99
2019-02-04T07:34:33.998Z,99.99
2019-02-04T07:35:33.997Z,99.99
2019-02-04T07:36:33.973Z,99.99
2019-02-04T07:37:33.961Z,99.99
2019-02-04T07:38:33.955Z,99.99
2019-02-04T07:39:33.945Z,99.99
2019-02-04T07:40:33.928Z,99.99
2019-02-04T07:41:33.920Z,99.99
2019-02-04T07:42:33.907Z,99.99
2019-02-04T07:43:33.896Z,99.99
2019-02-04T07:44:33.884Z,99.99
2019-02-04T07:45:33.876Z,99.99
2019-02-04T07:46:33.867Z,99.99
2019-02-04T07:47:33.956Z,99.99
2019-02-04T07:48:33.842Z,99.99
2019-02-04T07:49:35.240Z,99.99
2019-02-04T07:50:33.818Z,99.99
2019-02-04T07:51:33.809Z,99.99
2019-02-04T07:52:33.795Z,99.99
2019-02-04T07:53:33.902Z,99.99
2019-02-04T07:54:33.773Z,99.99
2019-02-04T07:55:33.776Z,99.99
2019-02-04T07:56:33.751Z,99.99
2019-02-04T07:57:33.742Z,99.99
2019-02-04T07:58:33.746Z,99.99
2019-02-04T07:59:33.739Z,99.99
2019-02-04T08:00:33.765Z,99.99
2019-02-04T08:01:33.699Z,99.99
2019-02-04T08:02:33.687Z,99.99
2019-02-04T08:03:33.678Z,99.99
2019-02-04T08:04:33.672Z,99.99
2019-02-04T08:05:33.654Z,99.99
2019-02-04T08:06:33.645Z,99.99
2019-02-04T08:07:33.637Z,99.99
2019-02-04T08:08:33.627Z,99.99
2019-02-04T08:09:33.620Z,99.99
2019-02-04T08:10:33.609Z,99.99
2019-02-04T08:11:33.596Z,99.99
2019-02-04T08:12:33.608Z,99.99
2019-02-04T08:13:33.570Z,99.99
2019-02-04T08:14:33.561Z,99.99
2019-02-04T08:15:33.549Z,99.99
2019-02-04T08:16:33.544Z,99.99
2019-02-04T08:17:33.527Z,99.99
2019-02-04T08:18:33.523Z,99.99
2019-02-04T08:19:33.514Z,99.99
2019-02-04T08:20:33.500Z,99.99
2019-02-04T08:21:33.491Z,99.99
2019-02-04T08:22:33.505Z,99.99
2019-02-04T08:23:33.471Z,99.99
2019-02-04T08:24:33.458Z,99.99
2019-02-04T08:25:33.450Z,99.99
2019-02-04T08:26:33.466Z,99.99
2019-02-04T08:27:33.430Z,99.99
2019-02-04T08:28:33.418Z,99.99
2019-02-04T08:29:33.411Z,99.99
2019-02-04T08:30:33.396Z,99.99
2019-02-04T08:31:33.385Z,99.99
2019-02-04T08:32:33.375Z,99.99
2019-02-04T08:33:33.368Z,99.99
2019-02-04T08:34:33.360Z,99.99
2019-02-04T08:35:33.348Z,99.99
2019-02-04T08:36:44.245Z,99.99
2019-02-04T08:37:33.327Z,99.99
2019-02-04T08:38:33.318Z,99.99
2019-02-04T08:39:33.314Z,99.99
2019-02-04T08:40:33.297Z,99.99
2019-02-04T08:41:33.289Z,99.99
2019-02-04T08:42:35.366Z,99.99
2019-02-04T08:43:33.272Z,99.99
2019-02-04T08:44:33.261Z,99.99
2019-02-04T08:45:34.848Z,99.99
2019-02-04T08:46:33.274Z,99.99
2019-02-04T08:47:33.921Z,99.99
2019-02-04T08:48:33.335Z,98.35
2019-02-04T08:49:33.406Z,94.18
2019-02-04T08:50:33.210Z,91.89
2019-02-04T08:51:33.251Z,91.14
2019-02-04T08:52:33.263Z,90.23
2019-02-04T08:53:33.298Z,89.38
2019-02-04T08:54:33.183Z,88.09
2019-02-04T08:55:33.182Z,86.29
2019-02-04T08:56:33.188Z,84.67
2019-02-04T08:57:33.249Z,83.00
2019-02-04T08:58:33.245Z,82.77
2019-02-04T08:59:33.173Z,82.39
2019-02-04T09:00:33.486Z,82.77
2019-02-04T09:01:33.170Z,82.77
2019-02-04T09:02:33.164Z,82.77
2019-02-04T09:03:33.169Z,82.01
2019-02-04T09:04:33.156Z,81.48
2019-02-04T09:05:33.147Z,79.77
2019-02-04T09:06:33.143Z,79.05
2019-02-04T09:07:33.133Z,77.76
2019-02-04T09:08:33.144Z,76.08
2019-02-04T09:09:33.109Z,74.02
2019-02-04T09:10:33.170Z,73.17
2019-02-04T09:11:33.133Z,71.73
2019-02-04T09:12:33.112Z,70.08
2019-02-04T09:13:33.129Z,70.50
2019-02-04T09:14:33.147Z,70.78
2019-02-04T09:15:33.134Z,69.99
2019-02-04T09:16:33.152Z,71.00
2019-02-04T09:17:33.143Z,70.81
2019-02-04T09:18:44.200Z,70.84
2019-02-04T09:19:33.139Z,71.26
2019-02-04T09:20:33.226Z,69.60
2019-02-04T09:21:33.149Z,69.04
2019-02-04T09:22:33.141Z,69.07
2019-02-04T09:23:33.156Z,68.21
2019-02-04T09:24:33.137Z,67.29
2019-02-04T09:25:33.156Z,66.66
2019-02-04T09:26:33.141Z,65.80
2019-02-04T09:27:33.172Z,63.54
2019-02-04T09:28:33.255Z,63.86
2019-02-04T09:29:33.223Z,62.71
2019-02-04T09:30:33.122Z,62.40
2019-02-04T09:31:33.164Z,62.49
2019-02-04T09:32:33.202Z,62.65
2019-02-04T09:33:33.201Z,61.83
2019-02-04T09:34:33.162Z,64.18
2019-02-04T09:35:33.251Z,65.80
2019-02-04T09:36:33.280Z,66.37
2019-02-04T09:37:33.238Z,65.92
2019-02-04T09:38:33.225Z,65.86
2019-02-04T09:39:33.343Z,65.00
2019-02-04T09:40:33.311Z,64.18
2019-02-04T09:41:33.346Z,63.07
2019-02-04T09:42:33.262Z,60.84
2019-02-04T09:43:33.224Z,60.36
2019-02-04T09:44:33.198Z,60.58
2019-02-04T09:45:33.192Z,61.07
2019-02-04T09:46:33.248Z,60.78
2019-02-04T09:47:33.205Z,59.63
2019-02-04T09:48:33.277Z,59.70
2019-02-04T09:49:33.276Z,60.72
2019-02-04T09:50:33.361Z,62.27
2019-02-04T09:51:33.286Z,62.05
2019-02-04T09:52:33.289Z,62.62
2019-02-04T09:53:33.298Z,61.80
2019-02-04T09:54:33.336Z,62.02
2019-02-04T09:55:33.371Z,61.93
2019-02-04T09:56:33.302Z,63.10
2019-02-04T09:57:33.378Z,63.07
2019-02-04T09:58:33.363Z,62.91
2019-02-04T09:59:33.320Z,63.20
2019-02-04T10:00:33.424Z,62.91
2019-02-04T10:01:33.335Z,62.56
2019-02-04T10:02:33.437Z,61.57
2019-02-04T10:03:33.339Z,61.80
2019-02-04T10:04:33.351Z,63.70
2019-02-04T10:05:33.335Z,65.51
2019-02-04T10:06:33.447Z,65.23
2019-02-04T10:07:33.376Z,65.48
2019-02-04T10:08:33.364Z,66.33
2019-02-04T10:09:33.491Z,66.53
2019-02-04T10:10:33.380Z,66.02
2019-02-04T10:11:33.388Z,66.05
2019-02-04T10:12:33.422Z,66.66
2019-02-04T10:13:33.397Z,66.56
2019-02-04T10:14:33.423Z,65.95
2019-02-04T10:15:33.437Z,66.78
2019-02-04T10:16:33.427Z,67.16
2019-02-04T10:17:33.441Z,67.92
2019-02-04T10:18:33.450Z,69.21
2019-02-04T10:19:33.448Z,69.50
2019-02-04T10:20:34.818Z,70.07
2019-02-04T10:21:33.505Z,69.69
2019-02-04T10:22:33.508Z,70.32
2019-02-04T10:23:33.495Z,71.94
2019-02-04T10:24:33.488Z,72.75
2019-02-04T10:25:33.523Z,72.95
2019-02-04T10:26:33.503Z,74.08
2019-02-04T10:27:35.493Z,75.19
2019-02-04T10:28:33.592Z,75.76
2019-02-04T10:29:33.548Z,76.61
2019-02-04T10:30:33.556Z,77.28
2019-02-04T10:31:33.542Z,77.71
2019-02-04T10:32:33.560Z,77.71
2019-02-04T10:33:33.571Z,77.33
2019-02-04T10:34:33.597Z,77.71
2019-02-04T10:35:33.633Z,78.09
2019-02-04T10:36:33.758Z,77.71
2019-02-04T10:37:33.829Z,77.62
2019-02-04T10:38:33.652Z,77.90
2019-02-04T10:39:33.665Z,78.00
2019-02-04T10:40:33.656Z,78.28
2019-02-04T10:41:33.649Z,78.47
2019-02-04T10:42:33.652Z,77.81
2019-02-04T10:43:33.651Z,78.38
2019-02-04T10:44:33.636Z,78.38
2019-02-04T10:45:33.650Z,78.38
2019-02-04T10:46:33.675Z,78.28
2019-02-04T10:47:33.684Z,78.56
2019-02-04T10:48:33.695Z,79.23
2019-02-04T10:49:33.754Z,80.08
2019-02-04T10:50:45.073Z,79.99
2019-02-04T10:51:33.750Z,78.38
2019-02-04T10:52:33.724Z,78.09
2019-02-04T10:53:33.722Z,77.71
2019-02-04T10:54:33.890Z,77.62
2019-02-04T10:55:33.743Z,78.19
2019-02-04T10:56:33.799Z,77.90
2019-02-04T10:57:40.517Z,77.90
2019-02-04T10:58:33.755Z,77.43
2019-02-04T10:59:33.748Z,77.52
2019-02-04T11:00:33.734Z,77.43
2019-02-04T11:01:33.761Z,77.24
2019-02-04T11:02:33.754Z,78.09
2019-02-04T11:03:33.742Z,78.09
2019-02-04T11:04:33.746Z,78.34
2019-02-04T11:05:33.837Z,79.10
2019-02-04T11:06:33.761Z,79.47
2019-02-04T11:07:33.746Z,79.47
2019-02-04T11:08:33.791Z,78.43
2019-02-04T11:09:33.781Z,79.14
2019-02-04T11:10:33.761Z,79.23
2019-02-04T11:11:33.861Z,79.33
2019-02-04T11:12:33.778Z,78.85
2019-02-04T11:13:33.741Z,78.66
2019-02-04T11:14:33.772Z,78.85
2019-02-04T11:15:33.741Z,78.28
2019-02-04T11:16:33.742Z,78.66
2019-02-04T11:17:33.776Z,78.95
2019-02-04T11:18:33.790Z,79.23
2019-02-04T11:19:33.774Z,78.85
2019-02-04T11:20:33.784Z,78.47
2019-02-04T11:21:33.745Z,78.28
2019-02-04T11:22:33.752Z,79.23
2019-02-04T11:23:33.726Z,79.04
2019-02-04T11:24:33.741Z,78.85
2019-02-04T11:25:33.756Z,79.52
2019-02-04T11:26:33.717Z,79.23
2019-02-04T11:27:33.769Z,78.47
2019-02-04T11:28:33.743Z,79.23
2019-02-04T11:29:33.726Z,79.14
2019-02-04T11:30:33.704Z,79.61
2019-02-04T11:31:33.719Z,79.52
2019-02-04T11:32:33.736Z,79.57
2019-02-04T11:33:33.697Z,79.85
2019-02-04T11:34:33.692Z,80.43
2019-02-04T11:35:33.745Z,80.24
2019-02-04T11:36:33.685Z,80.33
2019-02-04T11:37:33.733Z,80.24
2019-02-04T11:38:33.677Z,80.33
2019-02-04T11:39:33.676Z,80.52
2019-02-04T11:40:33.667Z,80.65
2019-02-04T11:41:33.828Z,80.18
2019-02-04T11:42:33.666Z,80.43
2019-02-04T11:43:33.676Z,80.80
2019-02-04T11:44:33.664Z,82.32
2019-02-04T11:45:33.649Z,81.66
2019-02-04T11:46:33.654Z,81.75
2019-02-04T11:47:33.640Z,82.04
2019-02-04T11:48:33.650Z,81.56
2019-02-04T11:49:33.638Z,81.85
2019-02-04T11:50:33.628Z,82.23
2019-02-04T11:51:33.621Z,82.04
2019-02-04T11:52:35.129Z,82.79
2019-02-04T11:53:33.626Z,82.60
2019-02-04T11:54:33.613Z,83.17
2019-02-04T11:55:33.610Z,83.03
2019-02-04T11:56:33.601Z,82.55
2019-02-04T11:57:33.596Z,82.36
2019-02-04T11:58:33.593Z,82.46
2019-02-04T11:59:33.588Z,82.27
2019-02-04T12:00:33.581Z,82.36
2019-02-04T12:01:33.600Z,82.17
2019-02-04T12:02:34.917Z,81.32
2019-02-04T12:03:33.585Z,81.13
2019-02-04T12:04:33.576Z,81.04
2019-02-04T12:05:33.559Z,81.23
2019-02-04T12:06:33.564Z,81.56
2019-02-04T12:07:33.557Z,81.66
2019-02-04T12:08:33.544Z,82.23
2019-02-04T12:09:33.546Z,82.32
2019-02-04T12:10:33.541Z,82.79
2019-02-04T12:11:33.535Z,82.60
2019-02-04T12:12:33.528Z,82.70
2019-02-04T12:13:33.521Z,82.89
2019-02-04T12:14:33.521Z,82.56
2019-02-04T12:15:33.513Z,83.61
2019-02-04T12:16:33.523Z,83.98
2019-02-04T12:17:33.505Z,84.74
2019-02-04T12:18:33.498Z,84.65
2019-02-04T12:19:33.497Z,84.36
2019-02-04T12:20:33.501Z,84.46
2019-02-04T12:21:33.491Z,85.22
2019-02-04T12:22:33.482Z,85.60
2019-02-04T12:23:33.475Z,86.07
2019-02-04T12:24:33.469Z,85.31
2019-02-04T12:25:33.469Z,85.41
2019-02-04T12:26:33.466Z,86.26
2019-02-04T12:27:33.451Z,86.16
2019-02-04T12:28:33.445Z,86.07
2019-02-04T12:29:33.459Z,86.35
2019-02-04T12:30:33.445Z,86.16
2019-02-04T12:31:33.440Z,85.50
2019-02-04T12:32:33.426Z,86.26
2019-02-04T12:33:33.441Z,86.45
2019-02-04T12:34:33.414Z,86.35
2019-02-04T12:35:33.411Z,87.21
2019-02-04T12:36:33.403Z,86.93
2019-02-04T12:37:33.400Z,87.12
2019-02-04T12:38:33.393Z,87.12
2019-02-04T12:39:33.387Z,87.30
2019-02-04T12:40:33.381Z,86.64
2019-02-04T12:41:33.375Z,87.30
2019-02-04T12:42:33.372Z,86.35
2019-02-04T12:43:33.365Z,86.45
2019-02-04T12:44:33.357Z,86.45
2019-02-04T12:45:33.352Z,87.02
2019-02-04T12:46:33.342Z,86.83
2019-02-04T12:47:33.341Z,86.64
2019-02-04T12:48:33.334Z,87.21
2019-02-04T12:49:33.337Z,87.49
2019-02-04T12:50:33.322Z,87.97
2019-02-04T12:51:34.040Z,88.06
2019-02-04T12:52:33.309Z,87.02
2019-02-04T12:53:33.309Z,86.64
2019-02-04T12:54:33.316Z,86.74
2019-02-04T12:55:33.293Z,86.64
2019-02-04T12:56:33.287Z,85.60
2019-02-04T12:57:33.282Z,86.26
2019-02-04T12:58:33.273Z,86.35
2019-02-04T12:59:33.289Z,85.69
2019-02-04T13:00:33.388Z,85.88
2019-02-04T13:01:33.263Z,85.27
2019-02-04T13:02:33.249Z,85.55
2019-02-04T13:03:33.243Z,86.60
2019-02-04T13:04:33.235Z,86.41
2019-02-04T13:05:33.231Z,86.50
2019-02-04T13:06:33.226Z,86.98
2019-02-04T13:07:33.218Z,86.88
2019-02-04T13:08:33.234Z,86.41
2019-02-04T13:09:33.222Z,85.84
2019-02-04T13:10:33.341Z,85.65
2019-02-04T13:11:33.196Z,85.27
2019-02-04T13:12:33.225Z,85.17
2019-02-04T13:13:33.183Z,85.36